ADDS METAR Data INFO
IDs: Format: Raw Decoded Include TAF

Data at: 1743 UTC 15 Dec 2017

KBVX 151656Z AUTO VRB05KT 10SM CLR 08/M02 A3021 RMK AO2 SLP234 T00781022
KBVX 151556Z AUTO 00000KT 10SM CLR 06/M02 A3022 RMK AO2 SLP238 T00561022
KBVX 151456Z AUTO 00000KT 10SM CLR 01/M03 A3022 RMK AO2 SLP239 T00111028 53009 FZRANO
KBVX 151356Z AUTO 00000KT 10SM FEW055 M03/M04 A3021 RMK AO2 SLP234 T10331044 FZRANO
KBVX 151256Z AUTO 00000KT 10SM BKN055 M03/M05 A3020 RMK AO2 SLP232 T10331050 FZRANO
KBVX 151156Z AUTO 31003KT 10SM CLR M03/M05 A3020 RMK AO2 SLP230 T10331050 10011 21039 53011 FZRANO
KBVX 151056Z AUTO 00000KT 10SM CLR M03/M06 A3017 RMK AO2 SLP222 T10331056 FZRANO
KBVX 150956Z AUTO 28003KT 10SM CLR M02/M04 A3016 RMK AO2 SLP217 T10221044 FZRANO
KBVX 150856Z AUTO 00000KT 10SM CLR M02/M04 A3016 RMK AO2 SLP217 T10171039 55000 FZRANO
KBVX 150756Z AUTO 29003KT 10SM CLR M01/M05 A3016 RMK AO2 SLP215 T10111050 FZRANO
KBVX 150656Z AUTO 00000KT 10SM CLR M01/M04 A3016 RMK AO2 SLP214 T10061039 FZRANO
KBVX 150556Z AUTO 30003KT 10SM OVC047 00/M04 A3016 RMK AO2 SLP216 T00001039 10033 20000 400890000 50002 FZRANO
KBVX 150456Z AUTO VRB03KT 10SM OVC047 02/M06 A3017 RMK AO2 SLP217 T00171056 FZRANO
KBVX 150356Z AUTO 29003KT 10SM FEW047 01/M05 A3017 RMK AO2 SLP217 T00061050 FZRANO
KBVX 150256Z AUTO 31003KT 10SM BKN050 01/M05 A3016 RMK AO2 SLP215 T00111050 51020 FZRANO
KBVX 150156Z AUTO 32003KT 10SM CLR 02/M05 A3015 RMK AO2 SLP210 T00221050 FZRANO
KBVX 150056Z AUTO 29004KT 10SM CLR 03/M04 A3012 RMK AO2 SLP203 T00281039
KBVX 142356Z AUTO 30003KT 10SM CLR 03/M04 A3010 RMK AO2 SLP196 T00331039 10089 20033 53016
KBVX 142256Z AUTO 30005KT 10SM CLR 05/M04 A3008 RMK AO2 SLP190 T00501039
KBVX 142156Z AUTO 34007G15KT 310V020 10SM CLR 07/M04 A3006 RMK AO2 SLP182 T00671039
KBVX 142056Z AUTO 35007KT 10SM FEW048 08/M04 A3005 RMK AO2 SLP178 T00831039 56006
KBVX 141956Z AUTO 30006KT 10SM FEW046 07/M04 A3005 RMK AO2 SLP179 T00721044
KBVX 141856Z AUTO 29007KT 260V340 10SM CLR 08/M04 A3006 RMK AO2 SLP181 T00781039
KBVX 141756Z AUTO 35007KT 10SM FEW043 08/M04 A3007 RMK AO2 SLP183 T00781039 10078 20044 50001
KBVX 141656Z AUTO VRB04KT 10SM CLR 06/M04 A3010 RMK AO2 SLP195 T00611039
KBVX 141556Z AUTO 34009KT 310V010 10SM CLR 07/M03 A3010 RMK AO2 SLP193 T00671028
KBVX 141456Z AUTO VRB05KT 10SM CLR 06/M02 A3006 RMK AO2 SLP182 T00561017 53032
KBVX 141356Z AUTO VRB04KT 10SM CLR 06/M02 A3003 RMK AO2 SLP171 T00561017
KBVX 141256Z AUTO 33004KT 10SM CLR 04/M02 A2999 RMK AO2 SLP158 T00441022
KBVX 141156Z AUTO VRB04KT 10SM CLR 06/M02 A2997 RMK AO2 SLP149 T00561022 10089 20050 53012
KBVX 141056Z AUTO 34004KT 10SM CLR 06/M02 A2993 RMK AO2 SLP137 T00561022
KBVX 140956Z AUTO VRB03KT 10SM CLR 07/M03 A2992 RMK AO2 SLP133 T00671028
KBVX 140856Z AUTO 28004KT 10SM CLR 06/M03 A2993 RMK AO2 SLP137 T00611028 53017
KBVX 140756Z AUTO 26004KT 10SM CLR 06/M03 A2991 RMK AO2 SLP131 T00561033
KBVX 140656Z AUTO 32004KT 10SM CLR 08/M03 A2990 RMK AO2 SLP124 T00831033
KBVX 140556Z AUTO 30004KT 10SM CLR 08/M03 A2988 RMK AO2 SLP120 T00831033 10111 20056 401611022 53014